sensor_id;sensor_type;location;lat;lon;timestamp;temperature;humidity
7212;DHT22;3647;48.792;9.802;2022-12-19T05:29:13;-0.50;99.90
7212;DHT22;3647;48.792;9.802;2022-12-19T05:31:40;-0.40;99.90
7212;DHT22;3647;48.792;9.802;2022-12-19T05:34:07;-0.50;99.90
7212;DHT22;3647;48.792;9.802;2022-12-19T05:36:34;1.20;99.90
7212;DHT22;3647;48.792;9.802;2022-12-19T05:39:01;0.50;99.90
7212;DHT22;3647;48.792;9.802;2022-12-19T05:41:27;-0.40;99.90
7212;DHT22;3647;48.792;9.802;2022-12-19T05:43:55;-0.40;99.90
7212;DHT22;3647;48.792;9.802;2022-12-19T05:46:24;-0.40;99.90
7212;DHT22;3647;48.792;9.802;2022-12-19T05:48:52;1.50;99.90
7212;DHT22;3647;48.792;9.802;2022-12-19T05:51:19;-0.40;99.90
7212;DHT22;3647;48.792;9.802;2022-12-19T05:53:46;-0.40;99.90
7212;DHT22;3647;48.792;9.802;2022-12-19T05:56:15;-0.40;99.90
7212;DHT22;3647;48.792;9.802;2022-12-19T05:58:42;-0.30;99.90
7212;DHT22;3647;48.792;9.802;2022-12-19T06:01:11;-0.40;99.90
7212;DHT22;3647;48.792;9.802;2022-12-19T06:03:40;-0.30;99.90
7212;DHT22;3647;48.792;9.802;2022-12-19T06:06:09;-0.30;99.90
7212;DHT22;3647;48.792;9.802;2022-12-19T07:15:56;0.30;99.90
7212;DHT22;3647;48.792;9.802;2022-12-19T07:18:23;0.40;99.90
7212;DHT22;3647;48.792;9.802;2022-12-19T07:20:50;0.40;99.90
7212;DHT22;3647;48.792;9.802;2022-12-19T07:23:19;1.90;99.90
7212;DHT22;3647;48.792;9.802;2022-12-19T07:25:46;0.40;99.90
7212;DHT22;3647;48.792;9.802;2022-12-19T07:28:14;1.40;99.90
7212;DHT22;3647;48.792;9.802;2022-12-19T07:30:41;0.50;99.90
7212;DHT22;3647;48.792;9.802;2022-12-19T07:33:11;2.70;99.90
7212;DHT22;3647;48.792;9.802;2022-12-19T07:35:38;0.50;99.90
7212;DHT22;3647;48.792;9.802;2022-12-19T07:38:06;1.10;99.90
7212;DHT22;3647;48.792;9.802;2022-12-19T07:40:33;0.60;99.90
7212;DHT22;3647;48.792;9.802;2022-12-19T07:43:01;0.60;99.90
7212;DHT22;3647;48.792;9.802;2022-12-19T07:45:28;0.60;99.90
7212;DHT22;3647;48.792;9.802;2022-12-19T07:47:59;0.70;99.90
7212;DHT22;3647;48.792;9.802;2022-12-19T07:50:27;0.70;99.90
7212;DHT22;3647;48.792;9.802;2022-12-19T07:52:54;0.80;99.90
7212;DHT22;3647;48.792;9.802;2022-12-19T07:55:22;0.80;99.90
7212;DHT22;3647;48.792;9.802;2022-12-19T07:57:49;1.90;99.90
7212;DHT22;3647;48.792;9.802;2022-12-19T08:00:17;0.90;99.90
7212;DHT22;3647;48.792;9.802;2022-12-19T08:02:44;0.90;99.90
7212;DHT22;3647;48.792;9.802;2022-12-19T08:05:11;1.00;99.90
7212;DHT22;3647;48.792;9.802;2022-12-19T08:07:40;1.00;99.90
7212;DHT22;3647;48.792;9.802;2022-12-19T08:10:07;1.10;99.90
7212;DHT22;3647;48.792;9.802;2022-12-19T08:12:35;1.20;99.90
7212;DHT22;3647;48.792;9.802;2022-12-19T08:15:03;1.20;99.90
7212;DHT22;3647;48.792;9.802;2022-12-19T08:17:30;1.20;99.90
7212;DHT22;3647;48.792;9.802;2022-12-19T08:19:57;2.20;99.90
7212;DHT22;3647;48.792;9.802;2022-12-19T08:22:24;1.30;99.90
7212;DHT22;3647;48.792;9.802;2022-12-19T08:24:52;1.40;99.90
7212;DHT22;3647;48.792;9.802;2022-12-19T08:27:19;1.50;99.90
7212;DHT22;3647;48.792;9.802;2022-12-19T08:29:46;1.50;99.90
7212;DHT22;3647;48.792;9.802;2022-12-19T08:32:13;1.50;99.90
7212;DHT22;3647;48.792;9.802;2022-12-19T08:34:41;1.60;99.90
7212;DHT22;3647;48.792;9.802;2022-12-19T08:37:08;1.70;99.90
7212;DHT22;3647;48.792;9.802;2022-12-19T08:39:35;1.70;99.90
7212;DHT22;3647;48.792;9.802;2022-12-19T08:42:04;1.70;99.90
7212;DHT22;3647;48.792;9.802;2022-12-19T08:44:30;1.80;99.90
7212;DHT22;3647;48.792;9.802;2022-12-19T08:46:57;1.80;99.90
7212;DHT22;3647;48.792;9.802;2022-12-19T08:49:24;1.80;99.90
7212;DHT22;3647;48.792;9.802;2022-12-19T08:52:01;1.90;99.90
7212;DHT22;3647;48.792;9.802;2022-12-19T08:54:27;2.00;99.90
7212;DHT22;3647;48.792;9.802;2022-12-19T08:56:54;2.10;99.90
7212;DHT22;3647;48.792;9.802;2022-12-19T08:59:23;2.10;99.90
7212;DHT22;3647;48.792;9.802;2022-12-19T09:01:50;2.30;99.90
7212;DHT22;3647;48.792;9.802;2022-12-19T09:04:17;2.30;99.90
7212;DHT22;3647;48.792;9.802;2022-12-19T09:06:44;2.40;99.90
7212;DHT22;3647;48.792;9.802;2022-12-19T09:09:10;2.50;99.90
7212;DHT22;3647;48.792;9.802;2022-12-19T09:11:37;2.50;99.90
7212;DHT22;3647;48.792;9.802;2022-12-19T09:14:04;2.60;99.90
7212;DHT22;3647;48.792;9.802;2022-12-19T09:16:32;2.70;99.90
7212;DHT22;3647;48.792;9.802;2022-12-19T09:18:59;4.80;99.90
7212;DHT22;3647;48.792;9.802;2022-12-19T09:21:27;3.00;99.90
7212;DHT22;3647;48.792;9.802;2022-12-19T09:23:56;3.00;99.90
7212;DHT22;3647;48.792;9.802;2022-12-19T09:26:25;4.80;99.90
7212;DHT22;3647;48.792;9.802;2022-12-19T09:28:52;3.30;99.90
7212;DHT22;3647;48.792;9.802;2022-12-19T09:31:21;3.40;99.90
7212;DHT22;3647;48.792;9.802;2022-12-19T09:33:50;3.40;99.90
7212;DHT22;3647;48.792;9.802;2022-12-19T09:36:21;3.50;99.90
7212;DHT22;3647;48.792;9.802;2022-12-19T09:38:51;3.60;99.90
7212;DHT22;3647;48.792;9.802;2022-12-19T09:41:36;3.60;99.90
7212;DHT22;3647;48.792;9.802;2022-12-19T09:44:12;3.70;99.90
7212;DHT22;3647;48.792;9.802;2022-12-19T09:46:46;3.80;99.90
7212;DHT22;3647;48.792;9.802;2022-12-19T09:49:19;3.80;99.90
7212;DHT22;3647;48.792;9.802;2022-12-19T09:51:52;3.80;99.90
7212;DHT22;3647;48.792;9.802;2022-12-19T09:54:25;3.80;99.90
7212;DHT22;3647;48.792;9.802;2022-12-19T09:56:57;3.80;99.90
7212;DHT22;3647;48.792;9.802;2022-12-19T09:59:27;3.90;99.90
7212;DHT22;3647;48.792;9.802;2022-12-19T10:02:02;3.90;99.90
7212;DHT22;3647;48.792;9.802;2022-12-19T10:04:33;4.10;99.90
7212;DHT22;3647;48.792;9.802;2022-12-19T10:07:01;3.90;99.90
7212;DHT22;3647;48.792;9.802;2022-12-19T10:09:33;4.60;99.90
7212;DHT22;3647;48.792;9.802;2022-12-19T10:12:12;4.00;99.90
7212;DHT22;3647;48.792;9.802;2022-12-19T10:14:53;4.10;99.90
7212;DHT22;3647;48.792;9.802;2022-12-19T10:17:29;4.20;99.90
7212;DHT22;3647;48.792;9.802;2022-12-19T10:20:15;5.70;99.90
7212;DHT22;3647;48.792;9.802;2022-12-19T10:22:50;4.40;99.90
7212;DHT22;3647;48.792;9.802;2022-12-19T10:25:38;4.40;99.90
7212;DHT22;3647;48.792;9.802;2022-12-19T10:28:19;4.50;99.90
7212;DHT22;3647;48.792;9.802;2022-12-19T10:30:57;4.60;99.90
7212;DHT22;3647;48.792;9.802;2022-12-19T10:33:34;5.10;99.90
7212;DHT22;3647;48.792;9.802;2022-12-19T10:36:10;4.90;99.90
7212;DHT22;3647;48.792;9.802;2022-12-19T10:38:41;5.10;99.90
7212;DHT22;3647;48.792;9.802;2022-12-19T10:41:18;5.60;99.90
7212;DHT22;3647;48.792;9.802;2022-12-19T10:43:51;5.10;99.90
7212;DHT22;3647;48.792;9.802;2022-12-19T10:46:27;5.00;99.90
7212;DHT22;3647;48.792;9.802;2022-12-19T10:49:01;4.70;99.90
7212;DHT22;3647;48.792;9.802;2022-12-19T10:51:30;5.00;99.90
7212;DHT22;3647;48.792;9.802;2022-12-19T10:53:58;4.70;99.90
7212;DHT22;3647;48.792;9.802;2022-12-19T10:56:27;5.00;99.90
7212;DHT22;3647;48.792;9.802;2022-12-19T10:58:55;4.80;99.90
7212;DHT22;3647;48.792;9.802;2022-12-19T11:01:26;4.90;99.90
7212;DHT22;3647;48.792;9.802;2022-12-19T11:04:24;4.90;99.90
7212;DHT22;3647;48.792;9.802;2022-12-19T11:07:16;5.00;99.90
7212;DHT22;3647;48.792;9.802;2022-12-19T11:09:45;5.00;99.90
7212;DHT22;3647;48.792;9.802;2022-12-19T11:12:15;5.10;99.90
7212;DHT22;3647;48.792;9.802;2022-12-19T11:14:49;6.00;99.90
7212;DHT22;3647;48.792;9.802;2022-12-19T11:17:34;5.10;99.90
7212;DHT22;3647;48.792;9.802;2022-12-19T11:20:11;5.10;99.90
7212;DHT22;3647;48.792;9.802;2022-12-19T11:22:46;5.00;99.90
7212;DHT22;3647;48.792;9.802;2022-12-19T11:25:19;5.10;99.90
7212;DHT22;3647;48.792;9.802;2022-12-19T11:27:49;5.10;99.90
7212;DHT22;3647;48.792;9.802;2022-12-19T11:30:22;5.20;99.90
7212;DHT22;3647;48.792;9.802;2022-12-19T11:33:06;5.20;99.90
7212;DHT22;3647;48.792;9.802;2022-12-19T11:35:45;5.20;99.90
7212;DHT22;3647;48.792;9.802;2022-12-19T11:38:17;5.30;99.90
7212;DHT22;3647;48.792;9.802;2022-12-19T11:40:47;5.60;99.90
7212;DHT22;3647;48.792;9.802;2022-12-19T11:43:20;5.50;99.90
7212;DHT22;3647;48.792;9.802;2022-12-19T11:45:56;5.50;99.90
7212;DHT22;3647;48.792;9.802;2022-12-19T11:48:34;5.60;99.90
7212;DHT22;3647;48.792;9.802;2022-12-19T11:51:06;5.70;99.90
7212;DHT22;3647;48.792;9.802;2022-12-19T11:53:47;5.80;99.90
7212;DHT22;3647;48.792;9.802;2022-12-19T11:56:17;7.10;99.90
7212;DHT22;3647;48.792;9.802;2022-12-19T11:58:49;5.80;99.90
7212;DHT22;3647;48.792;9.802;2022-12-19T12:01:27;5.80;99.90
7212;DHT22;3647;48.792;9.802;2022-12-19T12:04:31;5.70;99.90
7212;DHT22;3647;48.792;9.802;2022-12-19T12:07:00;5.60;99.90
7212;DHT22;3647;48.792;9.802;2022-12-19T12:09:33;5.60;99.90
7212;DHT22;3647;48.792;9.802;2022-12-19T12:12:08;5.50;99.90
7212;DHT22;3647;48.792;9.802;2022-12-19T12:14:46;5.50;99.90
7212;DHT22;3647;48.792;9.802;2022-12-19T12:17:27;5.60;99.90
7212;DHT22;3647;48.792;9.802;2022-12-19T12:20:16;5.60;99.90
7212;DHT22;3647;48.792;9.802;2022-12-19T12:22:55;5.60;99.90
7212;DHT22;3647;48.792;9.802;2022-12-19T12:25:39;5.60;99.90
7212;DHT22;3647;48.792;9.802;2022-12-19T12:28:35;5.60;99.90
7212;DHT22;3647;48.792;9.802;2022-12-19T12:31:34;5.70;99.90
7212;DHT22;3647;48.792;9.802;2022-12-19T12:34:21;5.80;99.90
7212;DHT22;3647;48.792;9.802;2022-12-19T12:36:56;6.00;99.90
7212;DHT22;3647;48.792;9.802;2022-12-19T12:39:35;7.30;99.90
7212;DHT22;3647;48.792;9.802;2022-12-19T12:42:17;5.60;99.90
7212;DHT22;3647;48.792;9.802;2022-12-19T12:44:50;5.60;99.90
7212;DHT22;3647;48.792;9.802;2022-12-19T12:47:28;7.80;99.90
7212;DHT22;3647;48.792;9.802;2022-12-19T12:49:59;5.40;99.90
7212;DHT22;3647;48.792;9.802;2022-12-19T12:52:33;5.40;99.90
7212;DHT22;3647;48.792;9.802;2022-12-19T12:55:16;5.40;99.90
7212;DHT22;3647;48.792;9.802;2022-12-19T12:57:45;5.40;99.90
7212;DHT22;3647;48.792;9.802;2022-12-19T13:00:18;5.40;99.90
7212;DHT22;3647;48.792;9.802;2022-12-19T13:02:49;5.30;99.90
7212;DHT22;3647;48.792;9.802;2022-12-19T13:05:33;5.40;99.90
7212;DHT22;3647;48.792;9.802;2022-12-19T13:08:01;5.50;99.90
7212;DHT22;3647;48.792;9.802;2022-12-19T13:10:59;5.40;99.90
7212;DHT22;3647;48.792;9.802;2022-12-19T13:13:49;5.40;99.90
7212;DHT22;3647;48.792;9.802;2022-12-19T13:16:52;5.50;99.90
7212;DHT22;3647;48.792;9.802;2022-12-19T13:19:22;5.50;99.90
7212;DHT22;3647;48.792;9.802;2022-12-19T13:22:19;5.50;99.90
7212;DHT22;3647;48.792;9.802;2022-12-19T13:24:49;5.50;99.90
7212;DHT22;3647;48.792;9.802;2022-12-19T13:27:37;5.70;99.90
7212;DHT22;3647;48.792;9.802;2022-12-19T13:30:17;5.50;99.90
7212;DHT22;3647;48.792;9.802;2022-12-19T13:33:08;5.50;99.90
7212;DHT22;3647;48.792;9.802;2022-12-19T13:35:36;5.50;99.90
7212;DHT22;3647;48.792;9.802;2022-12-19T13:38:19;5.50;99.90
7212;DHT22;3647;48.792;9.802;2022-12-19T13:40:57;7.70;99.90
7212;DHT22;3647;48.792;9.802;2022-12-19T13:43:35;5.50;99.90
7212;DHT22;3647;48.792;9.802;2022-12-19T13:46:24;5.50;99.90
7212;DHT22;3647;48.792;9.802;2022-12-19T13:48:55;5.60;99.90
7212;DHT22;3647;48.792;9.802;2022-12-19T13:51:23;5.60;99.90
7212;DHT22;3647;48.792;9.802;2022-12-19T13:53:51;5.60;99.90
7212;DHT22;3647;48.792;9.802;2022-12-19T13:56:19;5.50;99.90
7212;DHT22;3647;48.792;9.802;2022-12-19T13:58:49;5.40;99.90
7212;DHT22;3647;48.792;9.802;2022-12-19T14:01:22;5.40;99.90
7212;DHT22;3647;48.792;9.802;2022-12-19T14:03:51;5.70;99.90
7212;DHT22;3647;48.792;9.802;2022-12-19T14:06:21;5.30;99.90
7212;DHT22;3647;48.792;9.802;2022-12-19T14:08:51;7.00;99.90
7212;DHT22;3647;48.792;9.802;2022-12-19T14:11:19;6.00;99.90
7212;DHT22;3647;48.792;9.802;2022-12-19T14:13:50;5.10;99.90
7212;DHT22;3647;48.792;9.802;2022-12-19T14:16:35;5.10;99.90
7212;DHT22;3647;48.792;9.802;2022-12-19T14:19:02;5.80;99.90
7212;DHT22;3647;48.792;9.802;2022-12-19T14:21:29;5.10;99.90
7212;DHT22;3647;48.792;9.802;2022-12-19T14:24:10;5.00;99.90
7212;DHT22;3647;48.792;9.802;2022-12-19T14:26:38;5.20;99.90
7212;DHT22;3647;48.792;9.802;2022-12-19T14:29:12;4.90;99.90
7212;DHT22;3647;48.792;9.802;2022-12-19T14:31:40;4.90;99.90
7212;DHT22;3647;48.792;9.802;2022-12-19T14:34:14;4.80;99.90
7212;DHT22;3647;48.792;9.802;2022-12-19T14:36:49;4.70;99.90
7212;DHT22;3647;48.792;9.802;2022-12-19T14:39:20;4.70;99.90
7212;DHT22;3647;48.792;9.802;2022-12-19T14:41:49;4.70;99.90
7212;DHT22;3647;48.792;9.802;2022-12-19T14:44:46;4.60;99.90
7212;DHT22;3647;48.792;9.802;2022-12-19T14:47:21;4.60;99.90
7212;DHT22;3647;48.792;9.802;2022-12-19T14:49:49;4.50;99.90
7212;DHT22;3647;48.792;9.802;2022-12-19T14:52:34;4.40;99.90
7212;DHT22;3647;48.792;9.802;2022-12-19T14:55:27;4.30;99.90
7212;DHT22;3647;48.792;9.802;2022-12-19T14:57:55;4.20;99.90
7212;DHT22;3647;48.792;9.802;2022-12-19T15:00:26;4.10;99.90
7212;DHT22;3647;48.792;9.802;2022-12-19T15:02:55;4.00;99.90
7212;DHT22;3647;48.792;9.802;2022-12-19T15:05:23;4.00;99.90
7212;DHT22;3647;48.792;9.802;2022-12-19T15:07:53;4.00;99.90
7212;DHT22;3647;48.792;9.802;2022-12-19T15:10:22;3.90;99.90
7212;DHT22;3647;48.792;9.802;2022-12-19T15:12:56;3.80;99.90
7212;DHT22;3647;48.792;9.802;2022-12-19T15:15:43;3.80;99.90
7212;DHT22;3647;48.792;9.802;2022-12-19T15:18:19;3.80;99.90
7212;DHT22;3647;48.792;9.802;2022-12-19T15:20:49;3.70;99.90
7212;DHT22;3647;48.792;9.802;2022-12-19T15:23:16;3.80;99.90
7212;DHT22;3647;48.792;9.802;2022-12-19T15:25:44;3.70;99.90
7212;DHT22;3647;48.792;9.802;2022-12-19T15:28:13;3.60;99.90
7212;DHT22;3647;48.792;9.802;2022-12-19T15:30:46;3.60;99.90
7212;DHT22;3647;48.792;9.802;2022-12-19T15:33:15;3.60;99.90
7212;DHT22;3647;48.792;9.802;2022-12-19T15:35:43;3.50;99.90
7212;DHT22;3647;48.792;9.802;2022-12-19T15:38:10;2.50;99.90
7212;DHT22;3647;48.792;9.802;2022-12-19T15:40:39;5.10;99.90
7212;DHT22;3647;48.792;9.802;2022-12-19T15:43:14;3.40;99.90
7212;DHT22;3647;48.792;9.802;2022-12-19T15:45:44;2.40;99.90
7212;DHT22;3647;48.792;9.802;2022-12-19T15:48:13;3.20;99.90
7212;DHT22;3647;48.792;9.802;2022-12-19T15:50:41;3.10;99.90
7212;DHT22;3647;48.792;9.802;2022-12-19T15:53:18;3.10;99.90
7212;DHT22;3647;48.792;9.802;2022-12-19T15:55:46;5.30;99.90
7212;DHT22;3647;48.792;9.802;2022-12-19T15:58:14;3.10;99.90
7212;DHT22;3647;48.792;9.802;2022-12-19T16:00:50;3.40;99.90
7212;DHT22;3647;48.792;9.802;2022-12-19T16:03:18;3.10;99.90
7212;DHT22;3647;48.792;9.802;2022-12-19T16:05:46;3.00;99.90
7212;DHT22;3647;48.792;9.802;2022-12-19T16:08:15;3.00;99.90
7212;DHT22;3647;48.792;9.802;2022-12-19T16:10:45;2.90;99.90
7212;DHT22;3647;48.792;9.802;2022-12-19T16:13:18;2.90;99.90
7212;DHT22;3647;48.792;9.802;2022-12-19T16:15:48;2.90;99.90
7212;DHT22;3647;48.792;9.802;2022-12-19T16:18:15;3.50;99.90
7212;DHT22;3647;48.792;9.802;2022-12-19T16:20:44;2.80;99.90
7212;DHT22;3647;48.792;9.802;2022-12-19T16:23:12;2.80;99.90
7212;DHT22;3647;48.792;9.802;2022-12-19T16:25:43;2.80;99.90
7212;DHT22;3647;48.792;9.802;2022-12-19T16:28:15;2.80;99.90
7212;DHT22;3647;48.792;9.802;2022-12-19T16:30:43;2.60;99.90
7212;DHT22;3647;48.792;9.802;2022-12-19T16:33:18;2.60;99.90
7212;DHT22;3647;48.792;9.802;2022-12-19T16:35:45;2.60;99.90
7212;DHT22;3647;48.792;9.802;2022-12-19T16:38:12;2.50;99.90
7212;DHT22;3647;48.792;9.802;2022-12-19T16:40:40;2.60;99.90
7212;DHT22;3647;48.792;9.802;2022-12-19T16:43:12;2.80;99.90
7212;DHT22;3647;48.792;9.802;2022-12-19T16:45:41;2.40;99.90
7212;DHT22;3647;48.792;9.802;2022-12-19T16:48:17;3.40;99.90
7212;DHT22;3647;48.792;9.802;2022-12-19T16:50:44;2.30;99.90
7212;DHT22;3647;48.792;9.802;2022-12-19T16:53:11;2.20;99.90
7212;DHT22;3647;48.792;9.802;2022-12-19T16:55:38;2.90;99.90
7212;DHT22;3647;48.792;9.802;2022-12-19T16:58:14;2.20;99.90
7212;DHT22;3647;48.792;9.802;2022-12-19T17:00:42;2.10;99.90
7212;DHT22;3647;48.792;9.802;2022-12-19T17:03:24;2.10;99.90
7212;DHT22;3647;48.792;9.802;2022-12-19T17:05:52;2.10;99.90
7212;DHT22;3647;48.792;9.802;2022-12-19T17:08:19;2.00;99.90
7212;DHT22;3647;48.792;9.802;2022-12-19T17:10:47;2.50;99.90
7212;DHT22;3647;48.792;9.802;2022-12-19T17:13:15;2.00;99.90
7212;DHT22;3647;48.792;9.802;2022-12-19T17:15:44;2.10;99.90
7212;DHT22;3647;48.792;9.802;2022-12-19T17:18:13;1.90;99.90
7212;DHT22;3647;48.792;9.802;2022-12-19T17:20:43;1.90;99.90
7212;DHT22;3647;48.792;9.802;2022-12-19T17:23:16;1.90;99.90
7212;DHT22;3647;48.792;9.802;2022-12-19T17:25:44;1.80;99.90
7212;DHT22;3647;48.792;9.802;2022-12-19T17:28:12;1.80;99.90
7212;DHT22;3647;48.792;9.802;2022-12-19T17:30:40;1.70;99.90
7212;DHT22;3647;48.792;9.802;2022-12-19T17:33:11;1.70;99.90
7212;DHT22;3647;48.792;9.802;2022-12-19T17:35:41;1.70;99.90
7212;DHT22;3647;48.792;9.802;2022-12-19T17:38:12;1.60;99.90
7212;DHT22;3647;48.792;9.802;2022-12-19T17:40:40;1.70;99.90
7212;DHT22;3647;48.792;9.802;2022-12-19T17:43:09;1.70;99.90
7212;DHT22;3647;48.792;9.802;2022-12-19T17:45:38;1.60;99.90
7212;DHT22;3647;48.792;9.802;2022-12-19T17:48:11;1.60;99.90
7212;DHT22;3647;48.792;9.802;2022-12-19T17:50:42;1.60;99.90
7212;DHT22;3647;48.792;9.802;2022-12-19T17:53:12;1.50;99.90
7212;DHT22;3647;48.792;9.802;2022-12-19T17:55:39;1.50;99.90
7212;DHT22;3647;48.792;9.802;2022-12-19T17:58:07;1.50;99.90
7212;DHT22;3647;48.792;9.802;2022-12-19T18:00:34;1.60;99.90
7212;DHT22;3647;48.792;9.802;2022-12-19T18:03:05;1.50;99.90
7212;DHT22;3647;48.792;9.802;2022-12-19T18:05:37;1.60;99.90
7212;DHT22;3647;48.792;9.802;2022-12-19T18:08:20;3.20;99.90
7212;DHT22;3647;48.792;9.802;2022-12-19T18:10:48;1.70;99.90
7212;DHT22;3647;48.792;9.802;2022-12-19T18:13:15;1.70;99.90
7212;DHT22;3647;48.792;9.802;2022-12-19T18:15:42;1.80;99.90
7212;DHT22;3647;48.792;9.802;2022-12-19T18:18:13;1.80;99.90
7212;DHT22;3647;48.792;9.802;2022-12-19T18:20:47;1.70;99.90
7212;DHT22;3647;48.792;9.802;2022-12-19T18:23:17;1.60;99.90
7212;DHT22;3647;48.792;9.802;2022-12-19T18:25:45;1.60;99.90
7212;DHT22;3647;48.792;9.802;2022-12-19T18:28:13;1.60;99.90
7212;DHT22;3647;48.792;9.802;2022-12-19T18:30:42;1.60;99.90
7212;DHT22;3647;48.792;9.802;2022-12-19T18:33:14;1.60;99.90
7212;DHT22;3647;48.792;9.802;2022-12-19T18:35:44;1.60;99.90
7212;DHT22;3647;48.792;9.802;2022-12-19T18:38:14;1.60;99.90
7212;DHT22;3647;48.792;9.802;2022-12-19T18:40:46;1.50;99.90
7212;DHT22;3647;48.792;9.802;2022-12-19T18:43:14;1.50;99.90
7212;DHT22;3647;48.792;9.802;2022-12-19T18:45:42;1.50;99.90
7212;DHT22;3647;48.792;9.802;2022-12-19T18:48:14;1.50;99.90
7212;DHT22;3647;48.792;9.802;2022-12-19T18:50:42;2.60;99.90
7212;DHT22;3647;48.792;9.802;2022-12-19T18:53:14;1.40;99.90
7212;DHT22;3647;48.792;9.802;2022-12-19T18:55:44;1.50;99.90
7212;DHT22;3647;48.792;9.802;2022-12-19T18:58:11;1.50;99.90
7212;DHT22;3647;48.792;9.802;2022-12-19T19:00:39;1.40;99.90
7212;DHT22;3647;48.792;9.802;2022-12-19T19:03:14;1.40;99.90
7212;DHT22;3647;48.792;9.802;2022-12-19T19:05:42;1.40;99.90
7212;DHT22;3647;48.792;9.802;2022-12-19T19:08:15;1.40;99.90
7212;DHT22;3647;48.792;9.802;2022-12-19T19:10:45;1.40;99.90
7212;DHT22;3647;48.792;9.802;2022-12-19T19:13:13;1.40;99.90
7212;DHT22;3647;48.792;9.802;2022-12-19T19:15:46;1.90;99.90
7212;DHT22;3647;48.792;9.802;2022-12-19T19:18:13;1.30;99.90
7212;DHT22;3647;48.792;9.802;2022-12-19T19:20:43;1.30;99.90
7212;DHT22;3647;48.792;9.802;2022-12-19T19:23:13;1.20;99.90
7212;DHT22;3647;48.792;9.802;2022-12-19T19:25:40;1.20;99.90
7212;DHT22;3647;48.792;9.802;2022-12-19T19:28:10;1.20;99.90
7212;DHT22;3647;48.792;9.802;2022-12-19T19:30:38;1.20;99.90
7212;DHT22;3647;48.792;9.802;2022-12-19T19:33:09;1.10;99.90
7212;DHT22;3647;48.792;9.802;2022-12-19T19:35:37;1.20;99.90
7212;DHT22;3647;48.792;9.802;2022-12-19T19:38:05;1.10;99.90
7212;DHT22;3647;48.792;9.802;2022-12-19T19:40:34;1.10;99.90
7212;DHT22;3647;48.792;9.802;2022-12-19T19:43:01;1.00;99.90
7212;DHT22;3647;48.792;9.802;2022-12-19T19:45:29;1.00;99.90
7212;DHT22;3647;48.792;9.802;2022-12-19T19:47:56;1.10;99.90
7212;DHT22;3647;48.792;9.802;2022-12-19T19:50:23;1.70;99.90
7212;DHT22;3647;48.792;9.802;2022-12-19T19:52:50;1.00;99.90
7212;DHT22;3647;48.792;9.802;2022-12-19T19:55:17;1.50;99.90
7212;DHT22;3647;48.792;9.802;2022-12-19T19:57:43;1.00;99.90
7212;DHT22;3647;48.792;9.802;2022-12-19T20:00:11;0.90;99.90
7212;DHT22;3647;48.792;9.802;2022-12-19T20:02:40;0.90;99.90
7212;DHT22;3647;48.792;9.802;2022-12-19T20:05:07;0.10;99.90
7212;DHT22;3647;48.792;9.802;2022-12-19T20:07:34;0.90;99.90
7212;DHT22;3647;48.792;9.802;2022-12-19T20:10:01;0.80;99.90
7212;DHT22;3647;48.792;9.802;2022-12-19T20:12:28;0.90;99.90
7212;DHT22;3647;48.792;9.802;2022-12-19T20:14:54;0.80;99.90
7212;DHT22;3647;48.792;9.802;2022-12-19T20:17:21;0.80;99.90
7212;DHT22;3647;48.792;9.802;2022-12-19T20:19:49;0.70;99.90
7212;DHT22;3647;48.792;9.802;2022-12-19T20:22:17;0.80;99.90
7212;DHT22;3647;48.792;9.802;2022-12-19T20:24:44;0.70;99.90
7212;DHT22;3647;48.792;9.802;2022-12-19T20:27:11;0.70;99.90
7212;DHT22;3647;48.792;9.802;2022-12-19T20:29:38;0.80;99.90
7212;DHT22;3647;48.792;9.802;2022-12-19T20:32:05;0.80;99.90
7212;DHT22;3647;48.792;9.802;2022-12-19T20:34:32;0.80;99.90
7212;DHT22;3647;48.792;9.802;2022-12-19T20:37:00;0.80;99.90
7212;DHT22;3647;48.792;9.802;2022-12-19T20:39:27;0.70;99.90
7212;DHT22;3647;48.792;9.802;2022-12-19T20:41:54;0.80;99.90
7212;DHT22;3647;48.792;9.802;2022-12-19T20:44:21;0.80;99.90
7212;DHT22;3647;48.792;9.802;2022-12-19T20:46:47;0.80;99.90
7212;DHT22;3647;48.792;9.802;2022-12-19T20:49:15;1.00;99.90
7212;DHT22;3647;48.792;9.802;2022-12-19T20:51:43;0.80;99.90
7212;DHT22;3647;48.792;9.802;2022-12-19T20:54:13;0.80;99.90
7212;DHT22;3647;48.792;9.802;2022-12-19T20:56:41;0.90;99.90
7212;DHT22;3647;48.792;9.802;2022-12-19T20:59:08;1.40;99.90
7212;DHT22;3647;48.792;9.802;2022-12-19T21:01:36;0.90;99.90
7212;DHT22;3647;48.792;9.802;2022-12-19T21:04:03;0.90;99.90
7212;DHT22;3647;48.792;9.802;2022-12-19T21:06:30;0.90;99.90
7212;DHT22;3647;48.792;9.802;2022-12-19T21:08:57;0.90;99.90
7212;DHT22;3647;48.792;9.802;2022-12-19T21:11:25;0.90;99.90
7212;DHT22;3647;48.792;9.802;2022-12-19T21:13:52;0.90;99.90
7212;DHT22;3647;48.792;9.802;2022-12-19T21:16:20;0.90;99.90
7212;DHT22;3647;48.792;9.802;2022-12-19T21:18:48;0.90;99.90
7212;DHT22;3647;48.792;9.802;2022-12-19T21:21:21;0.90;99.90
7212;DHT22;3647;48.792;9.802;2022-12-19T21:23:49;0.90;99.90
7212;DHT22;3647;48.792;9.802;2022-12-19T21:26:17;0.90;99.90
7212;DHT22;3647;48.792;9.802;2022-12-19T21:28:45;0.90;99.90
7212;DHT22;3647;48.792;9.802;2022-12-19T21:31:15;2.50;99.90
7212;DHT22;3647;48.792;9.802;2022-12-19T21:33:43;0.90;99.90
7212;DHT22;3647;48.792;9.802;2022-12-19T21:36:12;0.90;99.90
7212;DHT22;3647;48.792;9.802;2022-12-19T21:38:41;0.90;99.90
7212;DHT22;3647;48.792;9.802;2022-12-19T21:41:08;0.90;99.90
7212;DHT22;3647;48.792;9.802;2022-12-19T21:43:36;0.90;99.90
7212;DHT22;3647;48.792;9.802;2022-12-19T21:46:05;0.90;99.90
7212;DHT22;3647;48.792;9.802;2022-12-19T21:48:37;1.00;99.90
7212;DHT22;3647;48.792;9.802;2022-12-19T21:51:04;1.00;99.90
7212;DHT22;3647;48.792;9.802;2022-12-19T21:53:31;0.90;99.90
7212;DHT22;3647;48.792;9.802;2022-12-19T21:56:05;1.00;99.90
7212;DHT22;3647;48.792;9.802;2022-12-19T21:58:33;0.90;99.90
7212;DHT22;3647;48.792;9.802;2022-12-19T22:01:06;0.90;99.90
7212;DHT22;3647;48.792;9.802;2022-12-19T22:03:33;0.90;99.90
7212;DHT22;3647;48.792;9.802;2022-12-19T22:06:00;0.90;99.90
7212;DHT22;3647;48.792;9.802;2022-12-19T22:08:27;0.90;99.90
7212;DHT22;3647;48.792;9.802;2022-12-19T22:10:53;0.90;99.90
7212;DHT22;3647;48.792;9.802;2022-12-19T22:13:20;0.90;99.90
7212;DHT22;3647;48.792;9.802;2022-12-19T22:15:48;0.90;99.90
7212;DHT22;3647;48.792;9.802;2022-12-19T22:18:16;0.90;99.90
7212;DHT22;3647;48.792;9.802;2022-12-19T22:20:44;1.00;99.90
7212;DHT22;3647;48.792;9.802;2022-12-19T22:23:11;0.90;99.90
7212;DHT22;3647;48.792;9.802;2022-12-19T22:25:38;1.00;99.90
7212;DHT22;3647;48.792;9.802;2022-12-19T22:28:05;1.20;99.90
7212;DHT22;3647;48.792;9.802;2022-12-19T22:30:33;1.00;99.90
7212;DHT22;3647;48.792;9.802;2022-12-19T22:33:00;1.00;99.90
7212;DHT22;3647;48.792;9.802;2022-12-19T22:35:28;1.00;99.90
7212;DHT22;3647;48.792;9.802;2022-12-19T22:37:55;1.80;99.90
7212;DHT22;3647;48.792;9.802;2022-12-19T22:40:22;1.00;99.90
7212;DHT22;3647;48.792;9.802;2022-12-19T22:42:49;1.00;99.90
7212;DHT22;3647;48.792;9.802;2022-12-19T22:45:16;1.10;99.90
7212;DHT22;3647;48.792;9.802;2022-12-19T22:47:43;1.10;99.90
7212;DHT22;3647;48.792;9.802;2022-12-19T22:50:10;0.90;99.90
7212;DHT22;3647;48.792;9.802;2022-12-19T22:52:39;1.50;99.90
